Terminal Aerodrome Forecast
Issued by NWS North Platte, NE

Home | Current Version | Previous Version | Text Only | Print | Product List | Glossary Off
Versions: 1 2 3 4 5 6 7 8 9 10 11 12 13 14 15 16 17 18 19 20 21

000
FTUS43 KLBF 181600 AAA
TAFVTN
TAF AMD
KVTN 181610Z 1816/1912 22007KT P6SM OVC010
      TEMPO 1816/1818 5SM BR OVC008
     FM181800 23007KT P6SM OVC015
     FM190600 23005KT P6SM SCT150=

USA.gov is the U.S. government's official web portal to all federal, state and local government web resources and services.